createdAt,value
2023-03-26T00:02:46.243Z,96800.28
2023-03-26T00:07:48.666Z,96790.53
2023-03-26T00:12:50.330Z,96802.16
2023-03-26T00:17:54.221Z,96809.44
2023-03-26T00:22:56.369Z,96803.22
2023-03-26T00:27:58.491Z,96800.91
2023-03-26T00:33:00.302Z,96806.81
2023-03-26T00:38:02.182Z,96804.03
2023-03-26T00:43:10.198Z,96805.81
2023-03-26T00:48:12.864Z,96802.63
2023-03-26T00:53:15.655Z,96805.16
2023-03-26T00:58:18.115Z,96802.28
2023-03-26T01:03:26.953Z,96784.88
2023-03-26T01:08:35.354Z,96806.50
2023-03-26T01:13:38.576Z,96785.53
2023-03-26T01:18:41.089Z,96810.88
2023-03-26T01:23:49.057Z,96799.84
2023-03-26T01:28:57.039Z,96794.00
2023-03-26T01:33:58.574Z,96803.91
2023-03-26T01:39:21.551Z,96799.09
2023-03-26T01:44:35.523Z,96798.75
2023-03-26T01:49:37.115Z,96807.13
2023-03-26T01:54:38.979Z,96805.50
2023-03-26T02:00:01.909Z,96814.66
2023-03-26T02:05:21.130Z,96803.97
2023-03-26T02:10:29.787Z,96811.75
2023-03-26T02:15:31.566Z,96792.56
2023-03-26T02:20:33.227Z,96793.38
2023-03-26T02:25:36.715Z,96792.84
2023-03-26T02:30:39.852Z,96793.38
2023-03-26T02:35:45.822Z,96788.03
2023-03-26T02:40:47.797Z,96784.97
2023-03-26T02:45:50.148Z,96783.88
2023-03-26T02:51:25.770Z,96779.22
2023-03-26T02:56:34.603Z,96775.06
2023-03-26T03:02:14.639Z,96775.06
2023-03-26T03:07:17.910Z,96767.94
2023-03-26T03:12:19.556Z,96769.19
2023-03-26T03:17:21.271Z,96770.69
2023-03-26T03:22:22.926Z,96768.97
2023-03-26T03:27:27.137Z,96776.31
2023-03-26T03:32:36.789Z,96781.75
2023-03-26T03:37:39.673Z,96788.16
2023-03-26T03:42:43.168Z,96778.53
2023-03-26T03:47:46.088Z,96771.19
2023-03-26T03:52:50.668Z,96756.03
2023-03-26T03:57:53.291Z,96755.59
2023-03-26T04:02:58.772Z,96756.41
2023-03-26T04:08:03.407Z,96750.56
2023-03-26T04:13:25.328Z,96757.78
2023-03-26T04:18:32.432Z,96756.75
2023-03-26T04:23:42.287Z,96753.19
2023-03-26T04:29:11.931Z,96757.22
2023-03-26T04:34:26.595Z,96754.75
2023-03-26T04:39:38.970Z,96739.88
2023-03-26T04:44:59.673Z,96748.72
2023-03-26T04:50:01.784Z,96745.09
2023-03-26T04:55:07.525Z,96751.69
2023-03-26T05:00:20.144Z,96762.81
2023-03-26T05:05:29.082Z,96756.28
2023-03-26T05:10:33.745Z,96756.19
2023-03-26T05:15:49.679Z,96757.13
2023-03-26T05:21:06.370Z,96759.19
2023-03-26T05:26:10.145Z,96760.47
2023-03-26T05:31:11.880Z,96755.59
2023-03-26T05:36:19.164Z,96760.03
2023-03-26T05:41:50.242Z,96763.59
2023-03-26T05:46:53.473Z,96761.88
2023-03-26T05:51:58.972Z,96748.28
2023-03-26T05:57:10.888Z,96746.59
2023-03-26T06:02:31.619Z,96746.41
2023-03-26T06:08:08.509Z,96732.81
2023-03-26T06:13:13.612Z,96734.06
2023-03-26T06:18:15.559Z,96729.69
2023-03-26T06:23:34.742Z,96724.25
2023-03-26T06:28:36.650Z,96726.13
2023-03-26T06:34:04.228Z,96715.50
2023-03-26T06:39:07.644Z,96725.75
2023-03-26T06:44:11.432Z,96723.44
2023-03-26T06:49:31.652Z,96722.91
2023-03-26T06:55:01.918Z,96721.59
2023-03-26T07:00:39.319Z,96720.09
2023-03-26T07:05:59.313Z,96717.16
2023-03-26T07:11:39.479Z,96703.38
2023-03-26T07:17:16.459Z,96696.72
2023-03-26T07:22:36.871Z,96696.84
2023-03-26T07:28:11.422Z,96700.16
2023-03-26T07:33:39.239Z,96699.28
2023-03-26T07:39:16.852Z,96685.56
2023-03-26T07:44:39.776Z,96686.72
2023-03-26T07:49:57.873Z,96687.47
2023-03-26T07:55:14.375Z,96691.97
2023-03-26T08:00:45.443Z,96682.00
2023-03-26T08:06:19.931Z,96673.09
2023-03-26T08:12:05.810Z,96668.69
2023-03-26T08:17:14.607Z,96670.78
2023-03-26T08:22:26.389Z,96669.31
2023-03-26T08:27:37.805Z,96665.34
2023-03-26T08:32:39.843Z,96657.22
2023-03-26T08:37:41.461Z,96648.84
2023-03-26T08:43:07.531Z,96646.03
2023-03-26T08:48:28.948Z,96648.81
2023-03-26T08:54:03.377Z,96637.59
2023-03-26T08:59:25.681Z,96632.09
2023-03-26T09:04:59.554Z,96637.09
2023-03-26T09:10:10.336Z,96631.47
2023-03-26T09:15:33.812Z,96623.72
2023-03-26T09:21:13.769Z,96630.09
2023-03-26T09:26:26.133Z,96634.25
2023-03-26T09:31:57.054Z,96613.84
2023-03-26T09:37:13.789Z,96623.53
2023-03-26T09:42:46.333Z,96598.88
2023-03-26T09:48:36.235Z,96582.00
2023-03-26T09:53:44.692Z,96575.91
2023-03-26T09:58:52.313Z,96558.50
2023-03-26T10:04:26.864Z,96562.34
2023-03-26T10:09:59.251Z,96555.47
2023-03-26T10:15:08.646Z,96543.63
2023-03-26T10:20:37.689Z,96532.63
2023-03-26T10:25:56.742Z,96529.94
2023-03-26T10:31:37.345Z,96532.72
2023-03-26T10:36:44.059Z,96524.63
2023-03-26T10:41:45.749Z,96522.44
2023-03-26T10:46:56.543Z,96519.50
2023-03-26T10:52:16.326Z,96509.69
2023-03-26T10:57:40.230Z,96508.94
2023-03-26T11:03:07.037Z,96501.91
2023-03-26T11:08:18.270Z,96506.91
2023-03-26T11:13:41.277Z,96502.22
2023-03-26T11:18:59.462Z,96488.22
2023-03-26T11:24:43.031Z,96485.66
2023-03-26T11:30:15.845Z,96492.94
2023-03-26T11:35:40.562Z,96492.41
2023-03-26T11:40:50.718Z,96490.06
2023-03-26T11:46:13.209Z,96484.75
2023-03-26T11:51:32.939Z,96486.63
2023-03-26T11:57:04.457Z,96489.06
2023-03-26T12:02:04.780Z,96487.91
2023-03-26T12:07:21.061Z,96478.97
2023-03-26T12:12:29.631Z,96478.75
2023-03-26T12:17:37.346Z,96471.81
2023-03-26T12:22:43.438Z,96471.53
2023-03-26T12:27:48.165Z,96459.97
2023-03-26T12:32:53.338Z,96478.53
2023-03-26T12:38:13.196Z,96484.31
2023-03-26T12:44:49.665Z,96478.69
2023-03-26T12:49:15.054Z,96484.41
2023-03-26T12:55:01.075Z,96480.53
2023-03-26T13:00:28.764Z,96478.47
2023-03-26T13:05:40.072Z,96485.88
2023-03-26T13:11:02.598Z,96482.00
2023-03-26T13:16:14.116Z,96476.16
2023-03-26T13:21:21.642Z,96471.28
2023-03-26T13:26:51.704Z,96464.34
2023-03-26T13:32:14.489Z,96459.59
2023-03-26T13:37:22.947Z,96473.47
2023-03-26T13:42:26.424Z,96459.34
2023-03-26T13:47:38.830Z,96457.59
2023-03-26T13:52:45.931Z,96455.44
2023-03-26T13:58:02.154Z,96443.97
2023-03-26T14:03:43.181Z,96434.44
2023-03-26T14:08:50.057Z,96432.16
2023-03-26T14:14:08.293Z,96437.00
2023-03-26T14:19:37.511Z,96427.47
2023-03-26T14:25:12.229Z,96423.09
2023-03-26T14:30:28.569Z,96411.25
2023-03-26T14:35:48.265Z,96401.66
2023-03-26T14:41:08.719Z,96400.91
2023-03-26T14:46:44.568Z,96393.75
2023-03-26T14:52:02.502Z,96389.97
2023-03-26T14:57:13.627Z,96383.22
2023-03-26T15:02:36.706Z,96387.19
2023-03-26T15:07:51.477Z,96378.47
2023-03-26T15:13:12.494Z,96373.31
2023-03-26T15:18:35.643Z,96369.06
2023-03-26T15:23:49.436Z,96372.84
2023-03-26T15:28:59.994Z,96361.44
2023-03-26T15:34:20.227Z,96365.94
2023-03-26T15:39:59.784Z,96360.97
2023-03-26T15:45:20.135Z,96358.16
2023-03-26T15:50:43.605Z,96353.00
2023-03-26T15:55:54.369Z,96349.16
2023-03-26T16:00:56.237Z,96344.78
2023-03-26T16:06:35.522Z,96346.88
2023-03-26T16:11:52.103Z,96335.78
2023-03-26T16:16:59.199Z,96334.56
2023-03-26T16:22:02.610Z,96338.56
2023-03-26T16:27:15.329Z,96333.53
2023-03-26T16:32:28.940Z,96325.56
2023-03-26T16:37:40.782Z,96326.44
2023-03-26T16:43:21.383Z,96333.16
2023-03-26T16:48:32.737Z,96335.63
2023-03-26T16:53:58.111Z,96333.44
2023-03-26T16:59:07.885Z,96333.16
2023-03-26T17:04:23.513Z,96333.72
2023-03-26T17:09:41.520Z,96332.75
2023-03-26T17:14:48.744Z,96328.53
2023-03-26T17:20:19.414Z,96335.97
2023-03-26T17:25:24.820Z,96341.78
2023-03-26T17:30:52.455Z,96347.34
2023-03-26T17:36:12.607Z,96348.75
2023-03-26T17:41:35.740Z,96350.16
2023-03-26T17:46:42.199Z,96350.06
2023-03-26T17:52:03.590Z,96351.91
2023-03-26T17:57:29.921Z,96346.63
2023-03-26T18:02:41.470Z,96340.16
2023-03-26T18:07:46.107Z,96348.28
2023-03-26T18:12:57.803Z,96339.88
2023-03-26T18:18:17.981Z,96339.69
2023-03-26T18:23:35.940Z,96339.69
2023-03-26T18:28:43.277Z,96343.81
2023-03-26T18:33:48.158Z,96340.84
2023-03-26T18:38:49.877Z,96334.19
2023-03-26T18:43:51.683Z,96333.47
2023-03-26T18:48:55.556Z,96336.50
2023-03-26T18:54:12.063Z,96342.19
2023-03-26T18:59:35.231Z,96341.50
2023-03-26T19:04:37.994Z,96337.13
2023-03-26T19:09:41.745Z,96332.97
2023-03-26T19:14:58.975Z,96318.41
2023-03-26T19:20:01.298Z,96312.66
2023-03-26T19:25:04.088Z,96315.47
2023-03-26T19:30:07.537Z,96311.88
2023-03-26T19:35:21.724Z,96313.91
2023-03-26T19:40:30.205Z,96301.94
2023-03-26T19:45:34.776Z,96298.81
2023-03-26T19:50:42.458Z,96297.88
2023-03-26T19:56:13.335Z,96287.72
2023-03-26T20:01:29.275Z,96282.75
2023-03-26T20:06:42.492Z,96270.03
2023-03-26T20:11:47.051Z,96264.84
2023-03-26T20:16:48.909Z,96255.09
2023-03-26T20:21:52.794Z,96254.00
2023-03-26T20:26:54.641Z,96248.84
2023-03-26T20:31:56.511Z,96249.97
2023-03-26T20:37:01.402Z,96250.81
2023-03-26T20:42:03.594Z,96254.59
2023-03-26T20:47:05.498Z,96245.13
2023-03-26T20:52:07.415Z,96249.69
2023-03-26T20:57:11.870Z,96248.78
2023-03-26T21:02:13.912Z,96254.22
2023-03-26T21:07:18.476Z,96251.47
2023-03-26T21:12:42.263Z,96260.09
2023-03-26T21:17:44.591Z,96263.97
2023-03-26T21:23:07.699Z,96256.22
2023-03-26T21:28:35.741Z,96259.59
2023-03-26T21:33:44.705Z,96269.66
2023-03-26T21:38:47.236Z,96273.94
2023-03-26T21:43:49.363Z,96279.66
2023-03-26T21:48:51.393Z,96284.34
2023-03-26T21:53:53.651Z,96283.63
2023-03-26T21:59:13.714Z,96270.75
2023-03-26T22:04:18.578Z,96283.63
2023-03-26T22:09:26.601Z,96286.47
2023-03-26T22:14:38.723Z,96298.81
2023-03-26T22:19:40.556Z,96290.34
2023-03-26T22:24:42.694Z,96295.88
2023-03-26T22:29:44.511Z,96302.84
2023-03-26T22:34:46.446Z,96311.00
2023-03-26T22:39:48.245Z,96317.53
2023-03-26T22:44:50.082Z,96327.75
2023-03-26T22:49:52.032Z,96319.66
2023-03-26T22:54:53.850Z,96325.63
2023-03-26T22:59:55.755Z,96329.78
2023-03-26T23:04:57.633Z,96340.56
2023-03-26T23:09:59.469Z,96349.69
2023-03-26T23:15:05.061Z,96355.75
2023-03-26T23:20:17.198Z,96360.91
2023-03-26T23:25:20.055Z,96369.63
2023-03-26T23:30:22.061Z,96368.38
2023-03-26T23:35:24.032Z,96372.25
2023-03-26T23:40:25.834Z,96380.97
2023-03-26T23:45:27.689Z,96378.41
2023-03-26T23:50:29.647Z,96386.47
2023-03-26T23:55:31.533Z,96387.09
